createdAt,value
2022-11-21T00:03:13.313Z,-0.02
2022-11-21T00:08:19.662Z,-0.01
2022-11-21T00:13:22.480Z,-0.03
2022-11-21T00:18:25.575Z,-0.08
2022-11-21T00:23:29.700Z,-0.09
2022-11-21T00:28:32.544Z,-0.13
2022-11-21T00:33:36.042Z,-0.16
2022-11-21T00:38:40.144Z,-0.18
2022-11-21T00:43:42.883Z,-0.23
2022-11-21T00:48:45.614Z,-0.23
2022-11-21T00:53:50.825Z,-0.24
2022-11-21T00:58:53.588Z,-0.21
2022-11-21T01:03:56.336Z,-0.16
2022-11-21T01:09:00.491Z,-0.17
2022-11-21T01:14:03.416Z,-0.18
2022-11-21T01:19:06.195Z,-0.18
2022-11-21T01:24:12.060Z,-0.17
2022-11-21T01:29:14.878Z,-0.13
2022-11-21T01:34:18.569Z,-0.20
2022-11-21T01:39:22.659Z,-0.11
2022-11-21T01:44:28.018Z,-0.28
2022-11-21T01:49:33.175Z,-0.44
2022-11-21T01:54:42.685Z,-0.24
2022-11-21T01:59:49.774Z,-0.30
2022-11-21T02:04:54.477Z,-0.28
2022-11-21T02:10:01.944Z,-0.34
2022-11-21T02:15:05.297Z,-0.45
2022-11-21T02:20:10.501Z,-0.52
2022-11-21T02:25:18.966Z,-0.47
2022-11-21T02:30:22.005Z,-0.54
2022-11-21T02:35:25.047Z,-0.51
2022-11-21T02:40:35.917Z,-0.51
2022-11-21T02:45:41.304Z,-0.51
2022-11-21T02:50:45.831Z,-0.52
2022-11-21T02:55:49.943Z,-0.38
2022-11-21T03:00:53.010Z,-0.44
2022-11-21T03:05:56.052Z,-0.35
2022-11-21T03:11:00.187Z,-0.31
2022-11-21T03:16:02.936Z,-0.41
2022-11-21T03:21:05.728Z,-0.52
2022-11-21T03:26:09.842Z,-0.59
2022-11-21T03:31:12.662Z,-0.48
2022-11-21T03:36:15.468Z,-0.51
2022-11-21T03:41:31.695Z,-0.56
2022-11-21T03:46:36.604Z,-0.59
2022-11-21T03:51:39.675Z,-0.79
2022-11-21T03:56:43.804Z,-0.75
2022-11-21T04:01:46.621Z,-0.79
2022-11-21T04:06:49.460Z,-0.62
2022-11-21T04:11:53.549Z,-0.58
2022-11-21T04:16:56.568Z,-0.54
2022-11-21T04:21:59.304Z,-0.41
2022-11-21T04:27:03.383Z,-0.30
2022-11-21T04:32:06.339Z,-0.31
2022-11-21T04:37:11.768Z,-0.25
2022-11-21T04:42:16.110Z,-0.19
2022-11-21T04:47:18.915Z,-0.23
2022-11-21T04:52:21.668Z,-0.29
2022-11-21T04:57:26.552Z,-0.39
2022-11-21T05:02:29.432Z,-0.45
2022-11-21T05:07:32.198Z,-0.46
2022-11-21T05:12:53.728Z,-0.50
2022-11-21T05:17:56.484Z,-0.51
2022-11-21T05:22:59.239Z,-0.52
2022-11-21T05:28:03.352Z,-0.52
2022-11-21T05:33:06.396Z,-0.62
2022-11-21T05:38:09.132Z,-0.72
2022-11-21T05:43:31.429Z,-0.75
2022-11-21T05:48:36.555Z,-0.89
2022-11-21T05:53:39.322Z,-0.99
2022-11-21T05:58:43.852Z,-1.09
2022-11-21T06:03:46.617Z,-1.18
2022-11-21T06:08:49.340Z,-1.21
2022-11-21T06:13:53.954Z,-1.22
2022-11-21T06:18:58.714Z,-1.23
2022-11-21T06:24:01.774Z,-1.25
2022-11-21T06:29:05.841Z,-1.29
2022-11-21T06:34:08.699Z,-1.28
2022-11-21T06:39:11.475Z,-1.33
2022-11-21T06:44:15.545Z,-1.36
2022-11-21T06:49:18.300Z,-1.40
2022-11-21T06:54:21.060Z,-1.41
2022-11-21T06:59:25.151Z,-1.44
2022-11-21T07:04:28.104Z,-1.37
2022-11-21T07:09:33.978Z,-1.25
2022-11-21T07:14:38.365Z,-0.90
2022-11-21T07:19:41.804Z,-0.33
2022-11-21T07:24:44.513Z,0.20
2022-11-21T07:29:48.604Z,0.21
2022-11-21T07:34:51.348Z,-0.09
2022-11-21T07:39:54.073Z,-0.28
2022-11-21T07:44:58.178Z,-0.31
2022-11-21T07:50:00.895Z,-0.12
2022-11-21T07:55:04.647Z,0.22
2022-11-21T08:00:10.778Z,0.58
2022-11-21T08:05:13.515Z,0.85
2022-11-21T08:10:17.311Z,1.08
2022-11-21T08:15:21.519Z,1.11
2022-11-21T08:20:24.296Z,1.34
2022-11-21T08:25:27.093Z,1.44
2022-11-21T08:30:31.870Z,1.44
2022-11-21T08:35:37.603Z,1.69
2022-11-21T08:40:41.306Z,1.99
2022-11-21T08:45:45.362Z,1.70
2022-11-21T08:50:48.364Z,2.06
2022-11-21T08:55:51.110Z,2.24
2022-11-21T09:00:55.179Z,2.80
2022-11-21T09:05:58.376Z,2.92
2022-11-21T09:11:05.387Z,3.13
2022-11-21T09:16:30.391Z,3.10
2022-11-21T09:21:33.186Z,2.90
2022-11-21T09:26:35.917Z,2.97
2022-11-21T09:31:40.001Z,3.11
2022-11-21T09:36:42.861Z,3.55
2022-11-21T09:41:57.488Z,3.76
2022-11-21T09:47:12.094Z,3.75
2022-11-21T09:52:18.823Z,4.04
2022-11-21T09:57:26.141Z,4.44
2022-11-21T10:02:32.660Z,4.14
2022-11-21T10:07:37.966Z,3.19
2022-11-21T10:12:52.762Z,2.63
2022-11-21T10:18:14.849Z,2.95
2022-11-21T10:23:36.654Z,3.01
2022-11-21T10:28:45.548Z,2.34
2022-11-21T10:33:53.592Z,2.46
2022-11-21T10:39:00.230Z,2.76
2022-11-21T10:44:27.601Z,2.78
2022-11-21T10:49:35.287Z,3.32
2022-11-21T10:55:04.521Z,2.97
2022-11-21T11:00:17.565Z,2.53
2022-11-21T11:05:24.795Z,3.69
2022-11-21T11:10:28.563Z,6.11
2022-11-21T11:15:31.539Z,4.62
2022-11-21T11:20:40.848Z,5.13
2022-11-21T11:25:48.152Z,7.29
2022-11-21T11:30:52.411Z,7.06
2022-11-21T11:36:03.968Z,7.40
2022-11-21T11:41:20.812Z,8.23
2022-11-21T11:47:15.099Z,8.68
2022-11-21T11:52:24.242Z,8.35
2022-11-21T11:57:31.580Z,7.57
2022-11-21T12:02:47.668Z,7.75
2022-11-21T12:13:29.388Z,8.31
2022-11-21T12:18:37.391Z,7.71
2022-11-21T12:23:47.446Z,6.78
2022-11-21T12:29:04.468Z,6.38
2022-11-21T12:34:21.263Z,5.48
2022-11-21T12:39:59.702Z,5.02
2022-11-21T12:45:28.680Z,5.18
2022-11-21T12:51:00.614Z,5.40
2022-11-21T12:56:12.108Z,4.94
2022-11-21T13:01:23.745Z,4.51
2022-11-21T13:06:28.732Z,4.66
2022-11-21T13:11:59.917Z,4.81
2022-11-21T13:17:15.324Z,5.64
2022-11-21T13:22:49.693Z,4.88
2022-11-21T13:27:54.703Z,3.24
2022-11-21T13:32:57.504Z,2.27
2022-11-21T13:38:01.761Z,1.86
2022-11-21T13:43:35.052Z,1.75
2022-11-21T13:49:02.505Z,1.34
2022-11-21T13:54:37.520Z,1.11
2022-11-21T13:59:56.838Z,1.13
2022-11-21T14:05:20.687Z,1.46
2022-11-21T14:10:34.164Z,1.48
2022-11-21T14:15:49.267Z,1.53
2022-11-21T14:20:56.839Z,1.37
2022-11-21T14:26:03.069Z,1.19
2022-11-21T14:31:08.086Z,1.21
2022-11-21T14:36:15.063Z,1.06
2022-11-21T14:41:28.085Z,1.19
2022-11-21T14:46:33.706Z,1.13
2022-11-21T14:51:37.899Z,1.02
2022-11-21T14:56:42.212Z,1.07
2022-11-21T15:01:57.350Z,1.11
2022-11-21T15:07:00.659Z,1.06
2022-11-21T15:12:07.761Z,1.08
2022-11-21T15:17:20.369Z,1.18
2022-11-21T15:22:31.696Z,1.02
2022-11-21T15:27:36.224Z,1.10
2022-11-21T15:33:02.035Z,1.04
2022-11-21T15:38:14.468Z,0.88
2022-11-21T15:43:32.028Z,0.82
2022-11-21T15:48:36.108Z,0.75
2022-11-21T15:53:39.042Z,0.70
2022-11-21T15:58:43.276Z,0.52
2022-11-21T16:03:49.951Z,0.47
2022-11-21T16:08:52.828Z,0.51
2022-11-21T16:13:58.597Z,0.42
2022-11-21T16:19:02.702Z,0.39
2022-11-21T16:24:06.022Z,0.23
2022-11-21T16:29:11.628Z,0.23
2022-11-21T16:34:19.676Z,0.11
2022-11-21T16:39:22.406Z,-0.00
2022-11-21T16:44:25.988Z,0.11
2022-11-21T16:49:30.446Z,0.03
2022-11-21T16:54:33.521Z,0.16
2022-11-21T16:59:36.325Z,0.05
2022-11-21T17:04:40.394Z,0.08
2022-11-21T17:09:43.133Z,-0.06
2022-11-21T17:14:47.756Z,-0.01
2022-11-21T17:19:54.464Z,0.11
2022-11-21T17:24:57.239Z,0.08
2022-11-21T17:30:00.018Z,0.17
2022-11-21T17:35:04.598Z,0.30
2022-11-21T17:40:12.043Z,0.34
2022-11-21T17:45:14.923Z,0.42
2022-11-21T17:50:19.091Z,0.35
2022-11-21T17:55:21.848Z,0.54
2022-11-21T18:00:24.694Z,0.44
2022-11-21T18:05:28.818Z,0.56
2022-11-21T18:10:46.903Z,0.47
2022-11-21T18:15:49.682Z,0.73
2022-11-21T18:20:53.871Z,0.73
2022-11-21T18:25:56.629Z,0.84
2022-11-21T18:31:07.398Z,0.90
2022-11-21T18:36:13.131Z,0.82
2022-11-21T18:41:17.833Z,0.95
2022-11-21T18:46:22.091Z,0.87
2022-11-21T18:51:27.897Z,1.10
2022-11-21T18:56:30.964Z,1.08
2022-11-21T19:01:34.219Z,1.17
2022-11-21T19:06:38.458Z,1.08
2022-11-21T19:11:41.725Z,1.13
2022-11-21T19:16:44.508Z,1.19
2022-11-21T19:21:48.775Z,1.23
2022-11-21T19:26:51.510Z,1.30
2022-11-21T19:31:54.275Z,1.34
2022-11-21T19:36:58.449Z,1.37
2022-11-21T19:42:01.247Z,1.36
2022-11-21T19:47:03.992Z,1.43
2022-11-21T19:52:08.117Z,1.48
2022-11-21T19:57:13.678Z,1.49
2022-11-21T20:02:19.034Z,1.53
2022-11-21T20:07:23.293Z,1.56
2022-11-21T20:12:26.107Z,1.63
2022-11-21T20:17:28.848Z,1.45
2022-11-21T20:22:33.145Z,1.49
2022-11-21T20:27:35.920Z,1.46
2022-11-21T20:32:39.467Z,1.57
2022-11-21T20:37:44.210Z,1.27
2022-11-21T20:42:46.950Z,1.49
2022-11-21T20:47:49.741Z,1.49
2022-11-21T20:53:50.395Z,1.39
2022-11-21T20:58:17.102Z,1.45
2022-11-21T21:03:19.883Z,1.58
2022-11-21T21:08:24.449Z,1.66
2022-11-21T21:13:27.951Z,1.58
2022-11-21T21:18:33.570Z,1.66
2022-11-21T21:23:37.908Z,1.65
2022-11-21T21:28:41.108Z,1.69
2022-11-21T21:33:43.939Z,1.66
2022-11-21T21:38:51.531Z,1.80
2022-11-21T21:43:55.961Z,1.80
2022-11-21T21:48:59.026Z,1.85
2022-11-21T21:54:03.103Z,1.67
2022-11-21T21:59:05.858Z,1.56
2022-11-21T22:04:08.602Z,1.78
2022-11-21T22:09:12.905Z,1.45
2022-11-21T22:14:16.867Z,1.70
2022-11-21T22:19:20.942Z,1.45
2022-11-21T22:24:26.639Z,1.69
2022-11-21T22:29:29.948Z,1.85
2022-11-21T22:34:32.973Z,1.72
2022-11-21T22:39:37.286Z,1.76
2022-11-21T22:44:40.017Z,1.90
2022-11-21T22:49:42.787Z,1.91
2022-11-21T22:54:46.859Z,1.92
2022-11-21T22:59:49.714Z,1.78
2022-11-21T23:04:52.446Z,1.75
2022-11-21T23:09:56.720Z,1.78
2022-11-21T23:15:00.668Z,1.82
2022-11-21T23:20:03.402Z,1.94
2022-11-21T23:25:08.274Z,1.90
2022-11-21T23:30:11.617Z,1.79
2022-11-21T23:35:14.467Z,1.91
2022-11-21T23:40:18.872Z,1.95
2022-11-21T23:45:21.648Z,1.86
2022-11-21T23:50:24.451Z,1.82
2022-11-21T23:55:28.880Z,1.82
